sensor_id;sensor_type;location;lat;lon;timestamp;temperature;humidity
42979;DHT22;28616;44.746;19.678;2023-08-06T00:00:41;19.70;99.90
42979;DHT22;28616;44.746;19.678;2023-08-06T00:03:07;19.80;99.90
42979;DHT22;28616;44.746;19.678;2023-08-06T00:05:32;19.80;99.90
42979;DHT22;28616;44.746;19.678;2023-08-06T00:07:58;19.80;99.90
42979;DHT22;28616;44.746;19.678;2023-08-06T00:10:24;19.70;99.90
42979;DHT22;28616;44.746;19.678;2023-08-06T00:12:49;19.70;99.90
42979;DHT22;28616;44.746;19.678;2023-08-06T00:15:15;19.70;99.90
42979;DHT22;28616;44.746;19.678;2023-08-06T00:17:41;19.70;99.90
42979;DHT22;28616;44.746;19.678;2023-08-06T00:20:07;19.70;99.90
42979;DHT22;28616;44.746;19.678;2023-08-06T00:22:34;19.70;99.90
42979;DHT22;28616;44.746;19.678;2023-08-06T00:25:00;19.60;99.90
42979;DHT22;28616;44.746;19.678;2023-08-06T00:27:26;19.70;99.90
42979;DHT22;28616;44.746;19.678;2023-08-06T00:29:52;19.70;99.90
42979;DHT22;28616;44.746;19.678;2023-08-06T00:32:19;19.70;99.90
42979;DHT22;28616;44.746;19.678;2023-08-06T00:34:44;19.60;99.90
42979;DHT22;28616;44.746;19.678;2023-08-06T00:37:10;19.60;99.90
42979;DHT22;28616;44.746;19.678;2023-08-06T00:39:36;19.60;99.90
42979;DHT22;28616;44.746;19.678;2023-08-06T00:42:02;19.70;99.90
42979;DHT22;28616;44.746;19.678;2023-08-06T00:44:27;19.70;99.90
42979;DHT22;28616;44.746;19.678;2023-08-06T00:46:53;19.60;99.90
42979;DHT22;28616;44.746;19.678;2023-08-06T00:49:19;19.60;99.90
42979;DHT22;28616;44.746;19.678;2023-08-06T00:51:45;19.70;99.90
42979;DHT22;28616;44.746;19.678;2023-08-06T00:54:11;19.70;99.90
42979;DHT22;28616;44.746;19.678;2023-08-06T00:56:37;19.70;99.90
42979;DHT22;28616;44.746;19.678;2023-08-06T00:59:04;19.60;99.90
42979;DHT22;28616;44.746;19.678;2023-08-06T01:01:30;19.70;99.90
42979;DHT22;28616;44.746;19.678;2023-08-06T01:03:56;19.70;99.90
42979;DHT22;28616;44.746;19.678;2023-08-06T01:06:52;19.60;99.90
42979;DHT22;28616;44.746;19.678;2023-08-06T01:09:34;19.60;99.90
42979;DHT22;28616;44.746;19.678;2023-08-06T01:12:29;19.60;99.90
42979;DHT22;28616;44.746;19.678;2023-08-06T01:15:15;19.60;99.90
42979;DHT22;28616;44.746;19.678;2023-08-06T01:17:41;19.60;99.90
42979;DHT22;28616;44.746;19.678;2023-08-06T01:20:07;19.60;99.90
42979;DHT22;28616;44.746;19.678;2023-08-06T01:22:33;19.60;99.90
42979;DHT22;28616;44.746;19.678;2023-08-06T01:24:59;19.60;99.90
42979;DHT22;28616;44.746;19.678;2023-08-06T01:27:49;19.60;99.90
42979;DHT22;28616;44.746;19.678;2023-08-06T01:30:27;19.60;99.90
42979;DHT22;28616;44.746;19.678;2023-08-06T01:32:59;19.70;99.90
42979;DHT22;28616;44.746;19.678;2023-08-06T01:35:27;19.70;99.90
42979;DHT22;28616;44.746;19.678;2023-08-06T01:37:54;19.70;99.90
42979;DHT22;28616;44.746;19.678;2023-08-06T01:40:22;19.70;99.90
42979;DHT22;28616;44.746;19.678;2023-08-06T01:42:47;19.80;99.90
42979;DHT22;28616;44.746;19.678;2023-08-06T01:45:14;19.70;99.90
42979;DHT22;28616;44.746;19.678;2023-08-06T01:47:39;19.70;99.90
42979;DHT22;28616;44.746;19.678;2023-08-06T01:50:05;19.70;99.90
42979;DHT22;28616;44.746;19.678;2023-08-06T01:52:31;19.70;99.90
42979;DHT22;28616;44.746;19.678;2023-08-06T01:54:57;19.70;99.90
42979;DHT22;28616;44.746;19.678;2023-08-06T01:57:23;19.70;99.90
42979;DHT22;28616;44.746;19.678;2023-08-06T01:59:49;19.80;99.90
42979;DHT22;28616;44.746;19.678;2023-08-06T02:02:14;19.80;99.90
42979;DHT22;28616;44.746;19.678;2023-08-06T02:04:40;19.80;99.90
42979;DHT22;28616;44.746;19.678;2023-08-06T02:07:06;19.80;99.90
42979;DHT22;28616;44.746;19.678;2023-08-06T02:09:32;19.80;99.90
42979;DHT22;28616;44.746;19.678;2023-08-06T02:11:57;19.70;99.90
42979;DHT22;28616;44.746;19.678;2023-08-06T02:14:23;19.80;99.90
42979;DHT22;28616;44.746;19.678;2023-08-06T02:16:49;19.80;99.90
42979;DHT22;28616;44.746;19.678;2023-08-06T02:19:15;19.70;99.90
42979;DHT22;28616;44.746;19.678;2023-08-06T02:21:41;19.70;99.90
42979;DHT22;28616;44.746;19.678;2023-08-06T02:24:07;19.70;99.90
42979;DHT22;28616;44.746;19.678;2023-08-06T02:26:32;19.70;99.90
42979;DHT22;28616;44.746;19.678;2023-08-06T02:28:58;19.80;99.90
42979;DHT22;28616;44.746;19.678;2023-08-06T02:31:24;19.80;99.90
42979;DHT22;28616;44.746;19.678;2023-08-06T02:33:49;19.80;99.90
42979;DHT22;28616;44.746;19.678;2023-08-06T02:36:15;19.80;99.90
42979;DHT22;28616;44.746;19.678;2023-08-06T02:38:41;19.80;99.90
42979;DHT22;28616;44.746;19.678;2023-08-06T02:41:07;19.90;99.90
42979;DHT22;28616;44.746;19.678;2023-08-06T02:43:32;19.90;99.90
42979;DHT22;28616;44.746;19.678;2023-08-06T02:45:59;19.90;99.90
42979;DHT22;28616;44.746;19.678;2023-08-06T02:48:25;19.90;99.90
42979;DHT22;28616;44.746;19.678;2023-08-06T02:50:51;19.80;99.90
42979;DHT22;28616;44.746;19.678;2023-08-06T02:53:17;19.80;99.90
42979;DHT22;28616;44.746;19.678;2023-08-06T02:55:47;19.80;99.90
42979;DHT22;28616;44.746;19.678;2023-08-06T02:58:16;19.80;99.90
42979;DHT22;28616;44.746;19.678;2023-08-06T03:00:45;19.80;99.90
42979;DHT22;28616;44.746;19.678;2023-08-06T03:03:11;19.80;99.90
42979;DHT22;28616;44.746;19.678;2023-08-06T03:05:37;19.80;99.90
42979;DHT22;28616;44.746;19.678;2023-08-06T03:08:03;19.80;99.90
42979;DHT22;28616;44.746;19.678;2023-08-06T03:10:28;19.80;99.90
42979;DHT22;28616;44.746;19.678;2023-08-06T03:12:54;19.80;99.90
42979;DHT22;28616;44.746;19.678;2023-08-06T03:15:20;19.90;99.90
42979;DHT22;28616;44.746;19.678;2023-08-06T03:17:45;19.80;99.90
42979;DHT22;28616;44.746;19.678;2023-08-06T03:20:11;19.80;99.90
42979;DHT22;28616;44.746;19.678;2023-08-06T03:22:37;19.80;99.90
42979;DHT22;28616;44.746;19.678;2023-08-06T03:25:03;19.90;99.90
42979;DHT22;28616;44.746;19.678;2023-08-06T03:27:29;19.90;99.90
42979;DHT22;28616;44.746;19.678;2023-08-06T03:29:55;19.90;99.90
42979;DHT22;28616;44.746;19.678;2023-08-06T03:32:21;19.90;99.90
42979;DHT22;28616;44.746;19.678;2023-08-06T03:34:46;19.90;99.90
42979;DHT22;28616;44.746;19.678;2023-08-06T03:37:12;19.90;99.90
42979;DHT22;28616;44.746;19.678;2023-08-06T03:39:38;19.90;99.90
42979;DHT22;28616;44.746;19.678;2023-08-06T03:42:04;19.90;99.90
42979;DHT22;28616;44.746;19.678;2023-08-06T03:44:30;19.90;99.90
42979;DHT22;28616;44.746;19.678;2023-08-06T03:46:56;20.00;99.90
42979;DHT22;28616;44.746;19.678;2023-08-06T03:49:22;20.00;99.90
42979;DHT22;28616;44.746;19.678;2023-08-06T03:51:47;20.00;99.90
42979;DHT22;28616;44.746;19.678;2023-08-06T03:54:13;20.00;99.90
42979;DHT22;28616;44.746;19.678;2023-08-06T03:56:39;20.00;99.90
42979;DHT22;28616;44.746;19.678;2023-08-06T03:59:05;20.10;99.90
42979;DHT22;28616;44.746;19.678;2023-08-06T04:01:30;20.10;99.90
42979;DHT22;28616;44.746;19.678;2023-08-06T04:03:56;20.10;99.90
42979;DHT22;28616;44.746;19.678;2023-08-06T04:06:22;20.00;99.90
42979;DHT22;28616;44.746;19.678;2023-08-06T04:08:47;20.00;99.90
42979;DHT22;28616;44.746;19.678;2023-08-06T04:11:13;20.00;99.90
42979;DHT22;28616;44.746;19.678;2023-08-06T04:13:42;20.00;99.90
42979;DHT22;28616;44.746;19.678;2023-08-06T04:16:08;20.10;99.90
42979;DHT22;28616;44.746;19.678;2023-08-06T04:18:34;20.10;99.90
42979;DHT22;28616;44.746;19.678;2023-08-06T04:21:01;20.10;99.90
42979;DHT22;28616;44.746;19.678;2023-08-06T04:23:27;20.00;99.90
42979;DHT22;28616;44.746;19.678;2023-08-06T04:25:56;20.10;99.90
42979;DHT22;28616;44.746;19.678;2023-08-06T04:28:22;20.10;99.90
42979;DHT22;28616;44.746;19.678;2023-08-06T04:30:48;20.10;99.90
42979;DHT22;28616;44.746;19.678;2023-08-06T04:33:14;20.10;99.90
42979;DHT22;28616;44.746;19.678;2023-08-06T04:35:40;20.10;99.90
42979;DHT22;28616;44.746;19.678;2023-08-06T04:38:06;20.10;99.90
42979;DHT22;28616;44.746;19.678;2023-08-06T04:40:35;20.10;99.90
42979;DHT22;28616;44.746;19.678;2023-08-06T04:43:01;20.20;99.90
42979;DHT22;28616;44.746;19.678;2023-08-06T04:45:27;20.10;99.90
42979;DHT22;28616;44.746;19.678;2023-08-06T04:47:52;20.10;99.90
42979;DHT22;28616;44.746;19.678;2023-08-06T04:50:19;20.10;99.90
42979;DHT22;28616;44.746;19.678;2023-08-06T04:52:45;20.10;99.90
42979;DHT22;28616;44.746;19.678;2023-08-06T04:55:11;20.00;99.90
42979;DHT22;28616;44.746;19.678;2023-08-06T04:57:37;20.00;99.90
42979;DHT22;28616;44.746;19.678;2023-08-06T05:00:03;20.10;99.90
42979;DHT22;28616;44.746;19.678;2023-08-06T05:02:30;20.10;99.90
42979;DHT22;28616;44.746;19.678;2023-08-06T05:04:58;20.10;99.90
42979;DHT22;28616;44.746;19.678;2023-08-06T05:07:23;20.10;99.90
42979;DHT22;28616;44.746;19.678;2023-08-06T05:09:49;20.10;99.90
42979;DHT22;28616;44.746;19.678;2023-08-06T05:12:15;20.10;99.90
42979;DHT22;28616;44.746;19.678;2023-08-06T05:14:41;20.10;99.90
42979;DHT22;28616;44.746;19.678;2023-08-06T05:17:06;20.10;99.90
42979;DHT22;28616;44.746;19.678;2023-08-06T05:19:32;20.10;99.90
42979;DHT22;28616;44.746;19.678;2023-08-06T05:21:58;20.20;99.90
42979;DHT22;28616;44.746;19.678;2023-08-06T05:24:24;20.40;99.90
42979;DHT22;28616;44.746;19.678;2023-08-06T05:26:49;20.40;99.90
42979;DHT22;28616;44.746;19.678;2023-08-06T05:29:16;20.50;99.90
42979;DHT22;28616;44.746;19.678;2023-08-06T05:31:42;20.50;99.90
42979;DHT22;28616;44.746;19.678;2023-08-06T05:34:08;20.50;99.90
42979;DHT22;28616;44.746;19.678;2023-08-06T05:36:34;20.50;99.90
42979;DHT22;28616;44.746;19.678;2023-08-06T05:39:00;20.50;99.90
42979;DHT22;28616;44.746;19.678;2023-08-06T05:41:26;20.50;99.90
42979;DHT22;28616;44.746;19.678;2023-08-06T05:43:51;20.40;99.90
42979;DHT22;28616;44.746;19.678;2023-08-06T05:46:17;20.40;99.90
42979;DHT22;28616;44.746;19.678;2023-08-06T05:48:43;20.40;99.90
42979;DHT22;28616;44.746;19.678;2023-08-06T05:51:08;20.40;99.90
42979;DHT22;28616;44.746;19.678;2023-08-06T05:53:34;20.40;99.90
42979;DHT22;28616;44.746;19.678;2023-08-06T05:56:00;20.40;99.90
42979;DHT22;28616;44.746;19.678;2023-08-06T05:58:26;20.40;99.90
42979;DHT22;28616;44.746;19.678;2023-08-06T06:00:54;20.40;99.90
42979;DHT22;28616;44.746;19.678;2023-08-06T06:03:20;20.50;99.90
42979;DHT22;28616;44.746;19.678;2023-08-06T06:05:46;20.60;99.90
42979;DHT22;28616;44.746;19.678;2023-08-06T06:08:11;20.70;99.90
42979;DHT22;28616;44.746;19.678;2023-08-06T06:13:11;20.60;99.90
42979;DHT22;28616;44.746;19.678;2023-08-06T06:15:37;20.60;99.90
42979;DHT22;28616;44.746;19.678;2023-08-06T06:18:03;20.70;99.90
42979;DHT22;28616;44.746;19.678;2023-08-06T06:20:31;20.70;99.90
42979;DHT22;28616;44.746;19.678;2023-08-06T06:22:57;20.80;99.90
42979;DHT22;28616;44.746;19.678;2023-08-06T06:25:22;20.80;99.90
42979;DHT22;28616;44.746;19.678;2023-08-06T06:27:49;20.80;99.90
42979;DHT22;28616;44.746;19.678;2023-08-06T06:30:15;20.90;99.90
42979;DHT22;28616;44.746;19.678;2023-08-06T06:32:41;21.00;99.90
42979;DHT22;28616;44.746;19.678;2023-08-06T06:35:07;21.00;99.90
42979;DHT22;28616;44.746;19.678;2023-08-06T06:37:33;21.00;99.90
42979;DHT22;28616;44.746;19.678;2023-08-06T06:39:59;21.00;99.90
42979;DHT22;28616;44.746;19.678;2023-08-06T06:44:51;21.10;99.90
42979;DHT22;28616;44.746;19.678;2023-08-06T06:47:16;21.20;99.90
42979;DHT22;28616;44.746;19.678;2023-08-06T06:49:42;21.20;99.90
42979;DHT22;28616;44.746;19.678;2023-08-06T06:52:08;21.20;99.90
42979;DHT22;28616;44.746;19.678;2023-08-06T06:54:34;21.30;99.90
42979;DHT22;28616;44.746;19.678;2023-08-06T06:57:00;21.30;99.90
42979;DHT22;28616;44.746;19.678;2023-08-06T06:59:25;21.20;99.90
42979;DHT22;28616;44.746;19.678;2023-08-06T07:01:51;21.20;99.90
42979;DHT22;28616;44.746;19.678;2023-08-06T07:04:17;21.20;99.90
42979;DHT22;28616;44.746;19.678;2023-08-06T07:11:35;21.50;99.90
42979;DHT22;28616;44.746;19.678;2023-08-06T07:14:00;21.80;99.90
42979;DHT22;28616;44.746;19.678;2023-08-06T07:16:27;21.80;99.90
42979;DHT22;28616;44.746;19.678;2023-08-06T07:18:54;21.80;99.90
42979;DHT22;28616;44.746;19.678;2023-08-06T07:21:20;21.70;99.90
42979;DHT22;28616;44.746;19.678;2023-08-06T07:26:17;21.60;99.90
42979;DHT22;28616;44.746;19.678;2023-08-06T07:28:43;21.60;99.90
42979;DHT22;28616;44.746;19.678;2023-08-06T07:31:09;21.60;99.90
42979;DHT22;28616;44.746;19.678;2023-08-06T07:33:35;21.50;99.90
42979;DHT22;28616;44.746;19.678;2023-08-06T07:36:08;21.50;99.90
42979;DHT22;28616;44.746;19.678;2023-08-06T07:38:34;21.50;99.90
42979;DHT22;28616;44.746;19.678;2023-08-06T12:43:43;23.40;99.90
42979;DHT22;28616;44.746;19.678;2023-08-06T12:46:08;23.30;99.90
42979;DHT22;28616;44.746;19.678;2023-08-06T12:48:36;23.20;99.90
42979;DHT22;28616;44.746;19.678;2023-08-06T12:51:02;23.10;99.90
42979;DHT22;28616;44.746;19.678;2023-08-06T12:53:27;22.80;99.90
42979;DHT22;28616;44.746;19.678;2023-08-06T12:55:53;22.40;99.90
42979;DHT22;28616;44.746;19.678;2023-08-06T13:00:52;21.80;99.90
42979;DHT22;28616;44.746;19.678;2023-08-06T13:03:18;21.60;99.90
42979;DHT22;28616;44.746;19.678;2023-08-06T13:07:48;21.20;99.90
42979;DHT22;28616;44.746;19.678;2023-08-06T13:10:14;20.80;99.90
42979;DHT22;28616;44.746;19.678;2023-08-06T13:12:40;20.50;99.90
42979;DHT22;28616;44.746;19.678;2023-08-06T13:15:06;20.30;99.90
42979;DHT22;28616;44.746;19.678;2023-08-06T13:17:32;20.30;99.90
42979;DHT22;28616;44.746;19.678;2023-08-06T13:19:58;20.20;99.90
42979;DHT22;28616;44.746;19.678;2023-08-06T13:27:16;19.80;99.90
42979;DHT22;28616;44.746;19.678;2023-08-06T13:29:41;19.80;99.90
42979;DHT22;28616;44.746;19.678;2023-08-06T13:32:07;19.70;99.90
42979;DHT22;28616;44.746;19.678;2023-08-06T13:34:33;19.60;99.90
42979;DHT22;28616;44.746;19.678;2023-08-06T13:36:59;19.60;99.90
42979;DHT22;28616;44.746;19.678;2023-08-06T13:39:24;19.60;99.90
42979;DHT22;28616;44.746;19.678;2023-08-06T13:41:50;19.60;99.90
42979;DHT22;28616;44.746;19.678;2023-08-06T13:44:16;19.60;99.90
42979;DHT22;28616;44.746;19.678;2023-08-06T13:49:08;19.50;99.90
42979;DHT22;28616;44.746;19.678;2023-08-06T13:51:34;19.60;99.90
42979;DHT22;28616;44.746;19.678;2023-08-06T13:54:01;19.50;99.90
42979;DHT22;28616;44.746;19.678;2023-08-06T13:56:27;19.50;99.90
42979;DHT22;28616;44.746;19.678;2023-08-06T13:58:52;19.50;99.90
42979;DHT22;28616;44.746;19.678;2023-08-06T14:01:18;19.60;99.90
42979;DHT22;28616;44.746;19.678;2023-08-06T14:03:47;19.80;99.90
42979;DHT22;28616;44.746;19.678;2023-08-06T14:06:13;20.00;99.90
42979;DHT22;28616;44.746;19.678;2023-08-06T14:11:05;20.30;99.90
42979;DHT22;28616;44.746;19.678;2023-08-06T14:13:31;20.40;99.90
42979;DHT22;28616;44.746;19.678;2023-08-06T14:15:57;20.20;99.90
42979;DHT22;28616;44.746;19.678;2023-08-06T14:18:23;20.30;99.90
42979;DHT22;28616;44.746;19.678;2023-08-06T14:20:49;20.30;99.90
42979;DHT22;28616;44.746;19.678;2023-08-06T14:23:14;20.30;99.90
42979;DHT22;28616;44.746;19.678;2023-08-06T14:25:40;20.20;99.90
42979;DHT22;28616;44.746;19.678;2023-08-06T14:28:06;20.20;99.90
42979;DHT22;28616;44.746;19.678;2023-08-06T14:30:33;20.00;99.90
42979;DHT22;28616;44.746;19.678;2023-08-06T14:45:10;20.50;99.90
42979;DHT22;28616;44.746;19.678;2023-08-06T14:47:36;19.30;99.90
42979;DHT22;28616;44.746;19.678;2023-08-06T14:50:02;19.30;99.90
42979;DHT22;28616;44.746;19.678;2023-08-06T14:52:27;19.20;99.90
42979;DHT22;28616;44.746;19.678;2023-08-06T14:54:53;19.20;99.90
42979;DHT22;28616;44.746;19.678;2023-08-06T14:57:21;19.20;99.90
42979;DHT22;28616;44.746;19.678;2023-08-06T14:59:47;19.30;99.90
42979;DHT22;28616;44.746;19.678;2023-08-06T15:02:13;19.30;99.90
42979;DHT22;28616;44.746;19.678;2023-08-06T15:04:39;19.30;99.90
42979;DHT22;28616;44.746;19.678;2023-08-06T15:07:04;19.30;99.90
42979;DHT22;28616;44.746;19.678;2023-08-06T15:09:30;19.20;99.90
42979;DHT22;28616;44.746;19.678;2023-08-06T15:11:56;19.10;99.90
42979;DHT22;28616;44.746;19.678;2023-08-06T15:14:22;19.10;99.90
42979;DHT22;28616;44.746;19.678;2023-08-06T15:38:55;18.80;99.90
42979;DHT22;28616;44.746;19.678;2023-08-06T15:41:20;18.70;99.90
42979;DHT22;28616;44.746;19.678;2023-08-06T15:43:46;18.60;99.90
42979;DHT22;28616;44.746;19.678;2023-08-06T15:46:12;18.60;99.90
42979;DHT22;28616;44.746;19.678;2023-08-06T15:48:38;18.60;99.90
42979;DHT22;28616;44.746;19.678;2023-08-06T15:51:03;18.60;99.90
42979;DHT22;28616;44.746;19.678;2023-08-06T15:53:29;18.60;99.90
42979;DHT22;28616;44.746;19.678;2023-08-06T15:55:57;18.60;99.90
42979;DHT22;28616;44.746;19.678;2023-08-06T15:58:22;18.50;99.90
42979;DHT22;28616;44.746;19.678;2023-08-06T16:00:48;18.50;99.90
42979;DHT22;28616;44.746;19.678;2023-08-06T16:03:14;18.50;99.90
42979;DHT22;28616;44.746;19.678;2023-08-06T16:05:39;18.50;99.90
42979;DHT22;28616;44.746;19.678;2023-08-06T16:08:05;18.50;99.90
42979;DHT22;28616;44.746;19.678;2023-08-06T16:10:31;18.50;99.90
42979;DHT22;28616;44.746;19.678;2023-08-06T16:12:58;18.60;99.90
42979;DHT22;28616;44.746;19.678;2023-08-06T16:15:24;18.50;99.90
42979;DHT22;28616;44.746;19.678;2023-08-06T16:17:49;18.50;99.90
42979;DHT22;28616;44.746;19.678;2023-08-06T16:20:15;18.60;99.90
42979;DHT22;28616;44.746;19.678;2023-08-06T16:22:42;18.50;99.90
42979;DHT22;28616;44.746;19.678;2023-08-06T16:25:08;18.60;99.90
42979;DHT22;28616;44.746;19.678;2023-08-06T16:27:38;18.60;99.90
42979;DHT22;28616;44.746;19.678;2023-08-06T16:30:04;18.70;99.90
42979;DHT22;28616;44.746;19.678;2023-08-06T16:32:30;18.70;99.90
42979;DHT22;28616;44.746;19.678;2023-08-06T16:34:56;18.70;99.90
42979;DHT22;28616;44.746;19.678;2023-08-06T16:37:22;18.60;99.90
42979;DHT22;28616;44.746;19.678;2023-08-06T16:39:48;18.70;99.90
42979;DHT22;28616;44.746;19.678;2023-08-06T16:42:14;18.60;99.90
42979;DHT22;28616;44.746;19.678;2023-08-06T16:44:40;18.50;99.90
42979;DHT22;28616;44.746;19.678;2023-08-06T16:47:06;18.50;99.90
42979;DHT22;28616;44.746;19.678;2023-08-06T16:49:33;18.50;99.90
42979;DHT22;28616;44.746;19.678;2023-08-06T16:51:59;18.40;99.90
42979;DHT22;28616;44.746;19.678;2023-08-06T16:54:25;18.40;99.90
42979;DHT22;28616;44.746;19.678;2023-08-06T16:56:50;18.40;99.90
42979;DHT22;28616;44.746;19.678;2023-08-06T16:59:16;18.40;99.90
42979;DHT22;28616;44.746;19.678;2023-08-06T17:01:42;18.30;99.90
42979;DHT22;28616;44.746;19.678;2023-08-06T17:04:08;18.30;99.90
42979;DHT22;28616;44.746;19.678;2023-08-06T17:06:34;18.30;99.90
42979;DHT22;28616;44.746;19.678;2023-08-06T17:08:59;18.30;99.90
42979;DHT22;28616;44.746;19.678;2023-08-06T17:11:26;18.20;99.90
42979;DHT22;28616;44.746;19.678;2023-08-06T17:13:53;18.20;99.90
42979;DHT22;28616;44.746;19.678;2023-08-06T17:16:18;18.20;99.90
42979;DHT22;28616;44.746;19.678;2023-08-06T17:18:44;18.20;99.90
42979;DHT22;28616;44.746;19.678;2023-08-06T17:21:10;18.20;99.90
42979;DHT22;28616;44.746;19.678;2023-08-06T17:23:35;18.20;99.90
42979;DHT22;28616;44.746;19.678;2023-08-06T17:26:01;18.20;99.90
42979;DHT22;28616;44.746;19.678;2023-08-06T17:28:27;18.30;99.90
42979;DHT22;28616;44.746;19.678;2023-08-06T17:30:53;18.30;99.90
42979;DHT22;28616;44.746;19.678;2023-08-06T17:33:18;18.30;99.90
42979;DHT22;28616;44.746;19.678;2023-08-06T17:35:44;18.30;99.90
42979;DHT22;28616;44.746;19.678;2023-08-06T17:38:11;18.30;99.90
42979;DHT22;28616;44.746;19.678;2023-08-06T17:40:37;18.40;99.90
42979;DHT22;28616;44.746;19.678;2023-08-06T17:43:02;18.30;99.90
42979;DHT22;28616;44.746;19.678;2023-08-06T17:45:28;18.30;99.90
42979;DHT22;28616;44.746;19.678;2023-08-06T17:47:55;18.30;99.90
42979;DHT22;28616;44.746;19.678;2023-08-06T17:50:24;18.30;99.90
42979;DHT22;28616;44.746;19.678;2023-08-06T17:52:50;18.30;99.90
42979;DHT22;28616;44.746;19.678;2023-08-06T17:55:16;18.30;99.90
42979;DHT22;28616;44.746;19.678;2023-08-06T17:57:41;18.30;99.90
42979;DHT22;28616;44.746;19.678;2023-08-06T18:00:08;18.30;99.90
42979;DHT22;28616;44.746;19.678;2023-08-06T18:02:34;18.20;99.90
42979;DHT22;28616;44.746;19.678;2023-08-06T18:05:00;18.20;99.90
42979;DHT22;28616;44.746;19.678;2023-08-06T18:07:26;18.20;99.90
42979;DHT22;28616;44.746;19.678;2023-08-06T18:09:51;18.20;99.90
42979;DHT22;28616;44.746;19.678;2023-08-06T18:12:17;18.20;99.90
42979;DHT22;28616;44.746;19.678;2023-08-06T18:14:44;18.10;99.90
42979;DHT22;28616;44.746;19.678;2023-08-06T18:17:09;18.10;99.90
42979;DHT22;28616;44.746;19.678;2023-08-06T18:19:35;18.10;99.90
42979;DHT22;28616;44.746;19.678;2023-08-06T18:22:01;18.10;99.90
42979;DHT22;28616;44.746;19.678;2023-08-06T18:24:29;18.10;99.90
42979;DHT22;28616;44.746;19.678;2023-08-06T18:26:54;18.10;99.90
42979;DHT22;28616;44.746;19.678;2023-08-06T18:29:20;18.00;99.90
42979;DHT22;28616;44.746;19.678;2023-08-06T18:31:46;18.00;99.90
42979;DHT22;28616;44.746;19.678;2023-08-06T18:34:12;18.00;99.90
42979;DHT22;28616;44.746;19.678;2023-08-06T18:36:38;18.00;99.90
42979;DHT22;28616;44.746;19.678;2023-08-06T18:39:04;18.00;99.90
42979;DHT22;28616;44.746;19.678;2023-08-06T18:41:29;18.10;99.90
42979;DHT22;28616;44.746;19.678;2023-08-06T18:43:55;18.10;99.90
42979;DHT22;28616;44.746;19.678;2023-08-06T18:46:21;18.10;99.90
42979;DHT22;28616;44.746;19.678;2023-08-06T18:48:47;18.10;99.90
42979;DHT22;28616;44.746;19.678;2023-08-06T18:51:13;18.10;99.90
42979;DHT22;28616;44.746;19.678;2023-08-06T18:53:38;18.20;99.90
42979;DHT22;28616;44.746;19.678;2023-08-06T18:56:04;18.10;99.90
42979;DHT22;28616;44.746;19.678;2023-08-06T18:58:30;18.10;99.90
42979;DHT22;28616;44.746;19.678;2023-08-06T19:00:57;18.10;99.90
42979;DHT22;28616;44.746;19.678;2023-08-06T19:03:23;18.10;99.90
42979;DHT22;28616;44.746;19.678;2023-08-06T19:05:49;18.10;99.90
42979;DHT22;28616;44.746;19.678;2023-08-06T19:08:14;18.10;99.90
42979;DHT22;28616;44.746;19.678;2023-08-06T19:10:40;18.00;99.90
42979;DHT22;28616;44.746;19.678;2023-08-06T19:13:08;18.10;99.90
42979;DHT22;28616;44.746;19.678;2023-08-06T19:15:34;18.10;99.90
42979;DHT22;28616;44.746;19.678;2023-08-06T19:18:02;18.10;99.90
42979;DHT22;28616;44.746;19.678;2023-08-06T19:20:30;18.00;99.90
42979;DHT22;28616;44.746;19.678;2023-08-06T19:22:56;18.00;99.90
42979;DHT22;28616;44.746;19.678;2023-08-06T19:25:22;18.10;99.90
42979;DHT22;28616;44.746;19.678;2023-08-06T19:27:48;18.10;99.90
42979;DHT22;28616;44.746;19.678;2023-08-06T19:30:14;18.10;99.90
42979;DHT22;28616;44.746;19.678;2023-08-06T19:32:40;18.10;99.90
42979;DHT22;28616;44.746;19.678;2023-08-06T19:35:05;18.20;99.90
42979;DHT22;28616;44.746;19.678;2023-08-06T19:37:32;18.20;99.90
42979;DHT22;28616;44.746;19.678;2023-08-06T19:39:58;18.20;99.90
42979;DHT22;28616;44.746;19.678;2023-08-06T19:42:24;18.20;99.90
42979;DHT22;28616;44.746;19.678;2023-08-06T19:44:50;18.20;99.90
42979;DHT22;28616;44.746;19.678;2023-08-06T19:47:15;18.20;99.90
42979;DHT22;28616;44.746;19.678;2023-08-06T19:49:42;18.20;99.90
42979;DHT22;28616;44.746;19.678;2023-08-06T19:52:08;18.30;99.90
42979;DHT22;28616;44.746;19.678;2023-08-06T19:54:34;18.30;99.90
42979;DHT22;28616;44.746;19.678;2023-08-06T19:57:01;18.20;99.90
42979;DHT22;28616;44.746;19.678;2023-08-06T19:59:27;18.30;99.90
42979;DHT22;28616;44.746;19.678;2023-08-06T20:01:53;18.20;99.90
42979;DHT22;28616;44.746;19.678;2023-08-06T20:04:20;18.20;99.90
42979;DHT22;28616;44.746;19.678;2023-08-06T20:06:46;18.20;99.90
42979;DHT22;28616;44.746;19.678;2023-08-06T20:09:13;18.20;99.90
42979;DHT22;28616;44.746;19.678;2023-08-06T20:11:39;18.20;99.90
42979;DHT22;28616;44.746;19.678;2023-08-06T20:14:06;18.20;99.90
42979;DHT22;28616;44.746;19.678;2023-08-06T20:16:32;18.20;99.90
42979;DHT22;28616;44.746;19.678;2023-08-06T20:18:58;18.10;99.90
42979;DHT22;28616;44.746;19.678;2023-08-06T20:21:24;18.10;99.90
42979;DHT22;28616;44.746;19.678;2023-08-06T20:23:49;18.00;99.90
42979;DHT22;28616;44.746;19.678;2023-08-06T20:26:15;18.00;99.90
42979;DHT22;28616;44.746;19.678;2023-08-06T20:28:41;18.10;99.90
42979;DHT22;28616;44.746;19.678;2023-08-06T20:31:07;18.00;99.90
42979;DHT22;28616;44.746;19.678;2023-08-06T20:33:33;18.00;99.90
42979;DHT22;28616;44.746;19.678;2023-08-06T20:36:01;18.00;99.90
42979;DHT22;28616;44.746;19.678;2023-08-06T20:38:27;18.00;99.90
42979;DHT22;28616;44.746;19.678;2023-08-06T20:40:52;18.00;99.90
42979;DHT22;28616;44.746;19.678;2023-08-06T20:43:21;18.00;99.90
42979;DHT22;28616;44.746;19.678;2023-08-06T20:45:56;17.90;99.90
42979;DHT22;28616;44.746;19.678;2023-08-06T20:48:23;17.90;99.90
42979;DHT22;28616;44.746;19.678;2023-08-06T20:50:49;17.90;99.90
42979;DHT22;28616;44.746;19.678;2023-08-06T20:53:15;17.80;99.90
42979;DHT22;28616;44.746;19.678;2023-08-06T20:55:41;17.80;99.90
42979;DHT22;28616;44.746;19.678;2023-08-06T20:58:08;17.80;99.90
42979;DHT22;28616;44.746;19.678;2023-08-06T21:00:34;17.70;99.90
42979;DHT22;28616;44.746;19.678;2023-08-06T21:03:00;17.70;99.90
42979;DHT22;28616;44.746;19.678;2023-08-06T21:05:26;17.70;99.90
42979;DHT22;28616;44.746;19.678;2023-08-06T21:07:53;17.60;99.90
42979;DHT22;28616;44.746;19.678;2023-08-06T21:10:19;17.60;99.90
42979;DHT22;28616;44.746;19.678;2023-08-06T21:12:44;17.50;99.90